Time;durP1;ratioP1;P1;durP2;ratioP2;P2;SDS_P1;SDS_P2;PMS_P1;PMS_P2;Temp;Humidity;BMP_temperature;BMP_pressure;BME280_temperature;BME280_humidity;BME280_pressure;Samples;Min_cycle;Max_cycle;Signal;HPM_P1;HPM_P2
2022/11/15 00:00:55;;;;;;;;;49.75;43.00;;;;;7.33;78.53;100778.63;4999967;28;11573;-62
2022/11/15 00:03:40;;;;;;;;;50.50;42.75;;;;;7.34;79.07;100782.97;4999508;28;11703;-63
2022/11/15 00:06:25;;;;;;;;;59.25;41.75;;;;;7.32;79.35;100784.13;5006777;28;11561;-65
2022/11/15 00:09:10;;;;;;;;;53.00;45.25;;;;;7.32;78.92;100784.97;5008093;28;11639;-64
2022/11/15 00:11:55;;;;;;;;;48.00;43.75;;;;;7.32;79.17;100782.28;5002109;28;11555;-61
2022/11/15 00:14:39;;;;;;;;;56.75;42.75;;;;;7.31;78.96;100785.97;5004325;28;11609;-63
2022/11/15 00:17:24;;;;;;;;;42.75;39.25;;;;;7.33;79.36;100775.94;5000125;28;11561;-66
2022/11/15 00:20:11;;;;;;;;;55.00;46.25;;;;;7.31;79.43;100777.13;4996561;28;11569;-66
2022/11/15 00:22:56;;;;;;;;;46.25;38.00;;;;;7.33;79.02;100769.72;4995304;28;11611;-65
2022/11/15 00:25:41;;;;;;;;;57.50;43.00;;;;;7.30;79.17;100770.94;5001305;28;11564;-63
2022/11/15 00:28:26;;;;;;;;;61.50;45.00;;;;;7.33;79.84;100769.72;4995458;28;11596;-63
2022/11/15 00:31:14;;;;;;;;;50.00;43.00;;;;;7.33;79.98;100775.09;5011791;28;12317;-64
2022/11/15 00:33:59;;;;;;;;;49.00;39.50;;;;;7.34;79.28;100772.25;5002996;28;12134;-62
2022/11/15 00:36:44;;;;;;;;;54.75;45.75;;;;;7.34;79.72;100761.53;5003754;28;11542;-65
2022/11/15 00:39:29;;;;;;;;;49.50;41.00;;;;;7.38;80.21;100770.91;5004110;28;11642;-61
2022/11/15 00:42:14;;;;;;;;;57.75;45.00;;;;;7.39;79.80;100763.69;5010129;28;11699;-66
2022/11/15 00:44:58;;;;;;;;;48.00;43.00;;;;;7.37;80.07;100763.00;5007308;28;11754;-65
2022/11/15 00:47:45;;;;;;;;;48.00;41.25;;;;;7.35;80.34;100757.84;5000811;28;11558;-64
2022/11/15 00:50:30;;;;;;;;;50.00;41.75;;;;;7.38;80.63;100752.16;5007184;28;11581;-64
2022/11/15 00:53:16;;;;;;;;;42.00;34.50;;;;;7.42;80.30;100753.47;5007523;28;11551;-64
2022/11/15 00:56:01;;;;;;;;;51.50;41.75;;;;;7.41;80.39;100750.94;5011405;28;11570;-62
2022/11/15 00:58:46;;;;;;;;;43.75;39.25;;;;;7.39;80.34;100737.75;5002711;28;11557;-63
2022/11/15 01:01:32;;;;;;;;;47.50;40.00;;;;;7.42;80.53;100734.72;5007759;28;11556;-65
2022/11/15 01:04:17;;;;;;;;;37.75;34.25;;;;;7.47;81.30;100736.03;5012215;28;11575;-64
2022/11/15 01:07:02;;;;;;;;;52.25;44.00;;;;;7.43;80.47;100744.41;5010091;28;11554;-65
2022/11/15 01:09:48;;;;;;;;;54.50;45.75;;;;;7.37;80.86;100734.44;5013186;28;11542;-65
2022/11/15 01:12:32;;;;;;;;;46.50;35.50;;;;;7.42;81.03;100734.72;5004287;28;11546;-62
2022/11/15 01:15:18;;;;;;;;;54.25;43.00;;;;;7.40;80.81;100728.69;5002940;28;12310;-62
2022/11/15 01:18:03;;;;;;;;;43.00;36.50;;;;;7.42;81.59;100729.38;5000885;28;11564;-65
2022/11/15 01:20:48;;;;;;;;;50.25;40.00;;;;;7.37;81.49;100713.00;5006582;28;12297;-65
2022/11/15 01:23:33;;;;;;;;;40.50;34.75;;;;;7.44;81.26;100723.81;5007492;28;11577;-62
2022/11/15 01:26:19;;;;;;;;;48.50;39.25;;;;;7.46;81.54;100724.50;5005339;28;11693;-58
2022/11/15 01:29:04;;;;;;;;;42.50;37.75;;;;;7.49;81.78;100724.13;5000619;28;11573;-62
2022/11/15 01:31:49;;;;;;;;;50.25;43.50;;;;;7.47;81.46;100734.19;5007664;28;11557;-60
2022/11/15 01:34:34;;;;;;;;;41.25;36.25;;;;;7.51;81.41;100730.16;5021284;28;11569;-65
2022/11/15 01:37:19;;;;;;;;;58.50;43.75;;;;;7.51;81.94;100723.97;4993125;28;11533;-63
2022/11/15 01:40:05;;;;;;;;;53.50;45.25;;;;;7.49;82.22;100717.94;5003210;28;11686;-64
2022/11/15 01:42:50;;;;;;;;;57.50;44.50;;;;;7.51;81.97;100714.06;5009782;28;11556;-66
2022/11/15 01:45:35;;;;;;;;;43.00;34.00;;;;;7.55;81.84;100711.88;5007343;28;11583;-66
2022/11/15 01:48:21;;;;;;;;;42.25;36.75;;;;;7.60;81.74;100704.13;5009588;28;11572;-63
2022/11/15 01:51:11;;;;;;;;;41.75;38.75;;;;;7.63;82.00;100709.97;5009547;28;11557;-65
2022/11/15 01:54:01;;;;;;;;;43.25;33.75;;;;;7.64;81.78;100705.44;5001853;28;11569;-64
2022/11/15 01:56:54;;;;;;;;;50.50;39.75;;;;;7.61;81.51;100705.78;5003856;28;11567;-65
2022/11/15 01:59:43;;;;;;;;;56.75;44.00;;;;;7.61;82.11;100695.91;5011138;28;11584;-62
2022/11/15 02:02:28;;;;;;;;;55.00;42.50;;;;;7.64;81.66;100708.13;5006965;28;11561;-60
2022/11/15 02:05:13;;;;;;;;;55.75;48.00;;;;;7.57;82.48;100691.09;5006251;28;12307;-62
2022/11/15 02:07:59;;;;;;;;;54.00;44.75;;;;;7.62;82.15;100689.56;5010835;28;11540;-62
2022/11/15 02:10:48;;;;;;;;;55.75;40.25;;;;;7.68;82.02;100688.84;4996590;28;11554;-63
2022/11/15 02:13:36;;;;;;;;;42.50;38.25;;;;;7.70;82.14;100683.31;5008810;28;12332;-63
2022/11/15 02:16:42;;;;;;;;;39.75;37.75;;;;;7.73;82.61;100679.41;5011511;28;11596;-63
2022/11/15 02:19:53;;;;;;;;;47.75;41.00;;;;;7.75;82.82;100672.06;5000735;28;11583;-64
2022/11/15 02:23:03;;;;;;;;;60.00;46.00;;;;;7.69;81.92;100660.19;5010762;28;11565;-65
2022/11/15 02:26:00;;;;;;;;;43.00;36.25;;;;;7.71;82.92;100660.84;5002802;28;12335;-63
2022/11/15 02:28:58;;;;;;;;;46.50;43.00;;;;;7.76;83.32;100652.28;5003666;28;11578;-66
2022/11/15 02:32:28;;;;;;;;;50.75;41.25;;;;;7.78;83.26;100653.78;5011065;28;11545;-65
2022/11/15 02:35:48;;;;;;;;;42.75;37.25;;;;;7.83;82.94;100643.34;4984209;28;11565;-65
2022/11/15 02:38:50;;;;;;;;;50.00;42.75;;;;;7.83;83.20;100642.50;5006221;28;11568;-68
2022/11/15 02:41:51;;;;;;;;;53.50;39.75;;;;;7.86;83.12;100637.63;5004331;28;11699;-64
2022/11/15 02:44:43;;;;;;;;;50.00;43.50;;;;;7.88;83.37;100640.94;5001078;28;11703;-65
2022/11/15 02:47:32;;;;;;;;;54.75;41.25;;;;;7.94;84.06;100631.34;5009023;28;11559;-64
2022/11/15 02:50:21;;;;;;;;;38.25;33.00;;;;;8.00;83.48;100632.47;5004161;28;11556;-60
2022/11/15 02:53:07;;;;;;;;;61.25;45.50;;;;;8.01;83.48;100624.22;5008273;28;11548;-66
2022/11/15 02:55:54;;;;;;;;;53.00;40.00;;;;;8.06;83.38;100619.19;5007307;28;11625;-66
2022/11/15 02:58:57;;;;;;;;;58.25;46.75;;;;;8.06;83.54;100615.63;5007204;28;11527;-66
2022/11/15 03:02:19;;;;;;;;;51.50;43.50;;;;;8.10;83.92;100611.56;5002041;28;11649;-65
2022/11/15 03:05:15;;;;;;;;;46.75;40.50;;;;;8.14;84.10;100607.50;5001836;28;11566;-66
2022/11/15 03:08:16;;;;;;;;;39.50;38.50;;;;;8.18;84.30;100600.75;5000602;28;11574;-65
2022/11/15 03:11:08;;;;;;;;;61.00;48.00;;;;;8.20;83.85;100606.78;5003515;28;11573;-67
2022/11/15 03:14:02;;;;;;;;;51.25;41.50;;;;;8.28;84.32;100611.22;4996472;28;11619;-65
2022/11/15 03:17:12;;;;;;;;;57.50;46.00;;;;;8.27;83.82;100606.88;5001247;28;11570;-64
2022/11/15 03:20:00;;;;;;;;;49.50;41.25;;;;;8.31;84.68;100608.19;5001380;28;11583;-66
2022/11/15 03:22:48;;;;;;;;;38.00;33.00;;;;;8.37;84.34;100610.13;4998256;28;11550;-67
2022/11/15 03:25:36;;;;;;;;;47.75;41.50;;;;;8.39;84.55;100617.00;5008047;28;11539;-66
2022/11/15 03:28:31;;;;;;;;;43.00;41.50;;;;;8.40;84.12;100610.59;5001711;28;11585;-66
2022/11/15 03:34:44;;;;;;;;;49.25;37.00;;;;;8.48;84.62;100598.94;5003316;28;12097;-66
2022/11/15 03:37:35;;;;;;;;;53.50;40.25;;;;;8.49;84.71;100599.78;5001462;28;11577;-63
2022/11/15 03:40:29;;;;;;;;;44.50;40.25;;;;;8.51;84.73;100597.75;5009962;28;12289;-65
2022/11/15 03:43:34;;;;;;;;;51.00;39.75;;;;;8.58;84.54;100604.00;5008121;28;11556;-65
2022/11/15 03:46:33;;;;;;;;;55.75;43.75;;;;;8.59;85.13;100600.34;5009963;28;11563;-64
2022/11/15 03:49:27;;;;;;;;;49.50;36.00;;;;;8.61;84.89;100601.78;5001540;28;12021;-66
2022/11/15 03:52:17;;;;;;;;;46.00;38.50;;;;;8.68;84.87;100595.69;5007350;28;11564;-65
2022/11/15 03:55:04;;;;;;;;;56.25;43.75;;;;;8.66;84.68;100602.06;4999641;28;11706;-65
2022/11/15 03:57:56;;;;;;;;;49.75;44.75;;;;;8.65;85.68;100599.56;5002737;28;12263;-65
2022/11/15 04:00:42;;;;;;;;;54.00;43.75;;;;;8.65;85.56;100600.41;4999500;28;11596;-65
2022/11/15 04:03:27;;;;;;;;;50.75;41.50;;;;;8.71;85.75;100593.47;4999638;28;11531;-64
2022/11/15 04:06:12;;;;;;;;;60.50;44.50;;;;;8.73;85.83;100594.09;5005688;28;11570;-66
2022/11/15 04:08:57;;;;;;;;;44.75;39.50;;;;;8.78;85.85;100599.72;5008542;28;11566;-65
2022/11/15 04:11:42;;;;;;;;;51.00;43.75;;;;;8.82;85.53;100589.44;5015188;28;11539;-65
2022/11/15 04:14:27;;;;;;;;;51.00;45.50;;;;;8.77;86.29;100584.66;5011111;28;11552;-65
2022/11/15 04:17:12;;;;;;;;;48.75;42.50;;;;;8.81;86.74;100587.78;5013975;28;11570;-65
2022/11/15 04:26:11;;;;;;;;;40.75;35.00;;;;;8.96;86.18;100593.13;5011550;28;11551;-65
2022/11/15 04:32:00;;;;;;;;;55.75;42.50;;;;;9.00;86.21;100591.72;5011950;28;11547;-65
2022/11/15 04:34:45;;;;;;;;;48.50;44.25;;;;;9.02;86.85;100593.19;5007382;28;11600;-65
2022/11/15 04:37:30;;;;;;;;;45.00;41.25;;;;;9.03;86.62;100584.09;5012259;28;11679;-65
2022/11/15 04:40:15;;;;;;;;;47.25;39.75;;;;;9.07;86.20;100576.50;5015704;28;11720;-66
2022/11/15 04:43:00;;;;;;;;;51.00;42.50;;;;;9.07;87.03;100579.19;5004754;28;11546;-65
2022/11/15 04:45:48;;;;;;;;;44.75;39.50;;;;;9.11;86.99;100580.47;5007558;28;11581;-65
2022/11/15 04:48:32;;;;;;;;;47.25;39.50;;;;;9.15;86.91;100577.22;5011601;28;11601;-65
2022/11/15 04:51:17;;;;;;;;;40.25;38.00;;;;;9.17;86.66;100577.03;5005891;28;12380;-65
2022/11/15 04:54:02;;;;;;;;;41.50;39.50;;;;;9.21;86.86;100572.94;5016670;28;11268;-65
2022/11/15 04:56:47;;;;;;;;;35.75;32.00;;;;;9.24;86.31;100574.41;5008587;28;11459;-66
2022/11/15 04:59:32;;;;;;;;;42.50;32.75;;;;;9.25;86.64;100571.53;5014165;28;11107;-65
2022/11/15 05:02:17;;;;;;;;;32.00;31.00;;;;;9.30;86.11;100565.56;5015928;28;11183;-64
2022/11/15 05:05:02;;;;;;;;;43.50;37.75;;;;;9.27;86.73;100574.84;5007734;28;11096;-65
2022/11/15 05:07:47;;;;;;;;;43.50;33.25;;;;;9.30;86.38;100579.84;5011578;28;11247;-65
2022/11/15 05:10:32;;;;;;;;;39.75;36.00;;;;;9.31;86.62;100588.72;5010641;28;11275;-65
2022/11/15 05:13:17;;;;;;;;;45.50;38.00;;;;;9.34;86.76;100588.34;5009806;28;11362;-63
2022/11/15 05:16:02;;;;;;;;;40.50;35.50;;;;;9.34;87.00;100589.16;5023757;28;11144;-65
2022/11/15 05:18:51;;;;;;;;;38.00;34.50;;;;;9.37;86.87;100599.53;5003321;28;11243;-65
2022/11/15 05:21:36;;;;;;;;;32.00;32.00;;;;;9.38;86.95;100606.56;5013839;28;11163;-64
2022/11/15 05:24:20;;;;;;;;;43.50;38.75;;;;;9.38;87.17;100595.81;5012311;28;11170;-65
2022/11/15 05:27:05;;;;;;;;;49.00;42.50;;;;;9.35;87.21;100601.56;4996867;28;11547;-65
2022/11/15 05:29:50;;;;;;;;;40.00;35.25;;;;;9.40;87.39;100598.34;5010337;28;11584;-65
2022/11/15 05:32:36;;;;;;;;;40.75;39.00;;;;;9.41;86.91;100597.31;5015052;28;11257;-63
2022/11/15 05:35:54;;;;;;;;;39.25;36.50;;;;;9.46;87.05;100599.41;5011364;28;11229;-65
2022/11/15 05:38:39;;;;;;;;;52.75;36.00;;;;;9.47;87.02;100603.75;5001995;28;11095;-65
2022/11/15 05:41:42;;;;;;;;;39.00;34.25;;;;;9.50;87.21;100604.19;5007801;28;11325;-67
2022/11/15 05:44:27;;;;;;;;;38.00;33.25;;;;;9.55;86.77;100607.13;5012453;28;11162;-65
2022/11/15 05:47:21;;;;;;;;;33.25;30.00;;;;;9.56;87.13;100603.44;5006325;28;11809;-63
2022/11/15 05:50:07;;;;;;;;;42.25;37.75;;;;;9.55;86.88;100603.59;5007270;28;10919;-65
2022/11/15 05:52:52;;;;;;;;;41.25;36.50;;;;;9.52;86.84;100606.69;5011209;28;12349;-66
2022/11/15 05:55:38;;;;;;;;;38.00;33.00;;;;;9.56;87.02;100602.56;5008538;28;11188;-66
2022/11/15 05:58:23;;;;;;;;;44.25;35.75;;;;;9.58;86.87;100609.44;5013337;28;11094;-66
2022/11/15 06:01:08;;;;;;;;;37.25;36.75;;;;;9.57;87.24;100602.41;5011113;28;11198;-67
2022/11/15 06:03:53;;;;;;;;;40.75;37.25;;;;;9.61;87.21;100610.91;5002950;28;10923;-67
2022/11/15 06:06:38;;;;;;;;;32.75;30.75;;;;;9.64;87.44;100610.50;5010510;28;11182;-67
2022/11/15 06:09:23;;;;;;;;;36.75;33.00;;;;;9.67;86.89;100610.13;5013714;28;11088;-64
2022/11/15 06:12:08;;;;;;;;;36.25;34.00;;;;;9.69;86.75;100615.31;5017693;28;11030;-65
2022/11/15 06:14:52;;;;;;;;;38.25;29.50;;;;;9.68;86.81;100617.16;5006975;28;10908;-66
2022/11/15 06:17:37;;;;;;;;;35.00;28.00;;;;;9.71;87.04;100624.84;5000532;28;11778;-65
2022/11/15 06:20:24;;;;;;;;;36.00;30.00;;;;;9.72;86.61;100621.13;5008094;28;12004;-66
2022/11/15 06:23:09;;;;;;;;;35.75;31.75;;;;;9.72;87.24;100621.13;5010931;28;10843;-66
2022/11/15 06:25:57;;;;;;;;;29.50;25.25;;;;;9.74;86.70;100629.84;5008007;28;10931;-65
2022/11/15 06:28:42;;;;;;;;;40.75;35.25;;;;;9.78;86.47;100630.28;5002744;28;10786;-66
2022/11/15 06:31:27;;;;;;;;;39.25;32.50;;;;;9.75;86.26;100627.97;4995121;28;10933;-64
2022/11/15 06:34:12;;;;;;;;;40.75;34.25;;;;;9.76;86.62;100635.00;5009085;28;11193;-67
2022/11/15 06:36:57;;;;;;;;;31.00;28.75;;;;;9.77;86.86;100636.69;5009716;28;10979;-68
2022/11/15 06:39:42;;;;;;;;;31.50;28.50;;;;;9.78;86.54;100636.47;5008537;28;11066;-66
2022/11/15 06:42:27;;;;;;;;;27.75;27.50;;;;;9.79;86.68;100642.69;5010661;28;11619;-67
2022/11/15 06:45:12;;;;;;;;;36.00;32.25;;;;;9.80;86.26;100638.97;5003981;28;11255;-66
2022/11/15 06:47:57;;;;;;;;;32.00;30.75;;;;;9.77;86.48;100637.53;5009560;28;11148;-66
2022/11/15 06:50:42;;;;;;;;;26.75;24.00;;;;;9.82;86.26;100640.44;5004863;28;10948;-66
2022/11/15 06:53:29;;;;;;;;;37.00;30.00;;;;;9.82;86.57;100653.06;4998979;28;10922;-66
2022/11/15 06:56:14;;;;;;;;;32.75;29.75;;;;;9.82;86.39;100645.81;4995792;28;10820;-66
2022/11/15 06:58:59;;;;;;;;;27.75;25.00;;;;;9.85;86.33;100647.31;4991594;28;11127;-65
2022/11/15 07:01:44;;;;;;;;;29.00;26.75;;;;;9.86;86.28;100654.34;5004340;28;11006;-65
2022/11/15 07:04:29;;;;;;;;;30.25;26.75;;;;;9.83;86.65;100655.53;5009673;28;10906;-66
2022/11/15 07:07:14;;;;;;;;;32.50;30.50;;;;;9.83;86.39;100655.53;5010747;28;11079;-66
2022/11/15 07:09:59;;;;;;;;;35.75;33.25;;;;;9.81;86.20;100649.53;5010579;28;10913;-64
2022/11/15 07:12:48;;;;;;;;;34.25;29.00;;;;;9.80;86.26;100650.56;5009885;28;10927;-65
2022/11/15 07:15:33;;;;;;;;;34.00;29.25;;;;;9.79;86.61;100653.44;5006883;28;10961;-66
2022/11/15 07:18:18;;;;;;;;;23.50;22.50;;;;;9.80;87.00;100647.03;5010706;28;10984;-66
2022/11/15 07:21:06;;;;;;;;;24.50;23.00;;;;;9.84;86.69;100656.38;5004530;28;11027;-64
2022/11/15 07:23:51;;;;;;;;;30.00;25.25;;;;;9.87;86.49;100659.50;5010505;28;10752;-69
2022/11/15 07:26:36;;;;;;;;;31.00;27.50;;;;;9.80;86.75;100652.41;5010083;28;10951;-65
2022/11/15 07:29:21;;;;;;;;;29.50;26.50;;;;;9.83;86.69;100657.41;5010102;28;10949;-63
2022/11/15 07:32:06;;;;;;;;;35.00;28.25;;;;;9.77;86.55;100652.81;5008680;28;10897;-66
2022/11/15 07:34:51;;;;;;;;;27.50;22.50;;;;;9.81;86.67;100648.72;5010411;28;11019;-65
2022/11/15 07:37:35;;;;;;;;;24.50;24.25;;;;;9.81;86.66;100646.03;5010407;28;10715;-65
2022/11/15 07:40:20;;;;;;;;;28.75;24.25;;;;;9.82;86.59;100651.19;5009530;28;10834;-64
2022/11/15 07:43:07;;;;;;;;;22.75;19.50;;;;;9.85;86.45;100650.81;5010629;28;10695;-66
2022/11/15 07:45:52;;;;;;;;;31.00;24.75;;;;;9.84;86.56;100654.53;5009926;28;10541;-64
2022/11/15 07:48:43;;;;;;;;;31.75;27.75;;;;;9.79;86.28;100656.97;5010188;28;10876;-66
2022/11/15 07:51:29;;;;;;;;;24.25;20.50;;;;;9.85;86.68;100663.44;5009716;28;11508;-66
2022/11/15 07:54:14;;;;;;;;;27.00;24.75;;;;;9.85;86.38;100656.19;4995380;28;11613;-66
2022/11/15 07:56:59;;;;;;;;;34.25;25.50;;;;;9.84;86.60;100648.31;4990744;28;10913;-65
2022/11/15 07:59:50;;;;;;;;;26.25;22.50;;;;;9.87;86.23;100650.63;5000819;28;10700;-65
2022/11/15 08:02:35;;;;;;;;;32.75;29.25;;;;;9.88;86.24;100638.81;5009625;28;10774;-66
2022/11/15 08:05:20;;;;;;;;;25.00;24.50;;;;;9.88;86.18;100642.38;5009807;28;11149;-66
2022/11/15 08:08:07;;;;;;;;;27.00;21.00;;;;;9.93;86.63;100640.97;5010161;28;10746;-64
2022/11/15 08:10:52;;;;;;;;;27.00;22.00;;;;;9.97;85.64;100643.06;5009623;28;10935;-66
2022/11/15 08:13:37;;;;;;;;;32.50;25.25;;;;;9.96;86.28;100641.38;5009708;28;10603;-65
2022/11/15 08:16:22;;;;;;;;;28.25;26.00;;;;;9.98;86.39;100646.56;5009714;28;10624;-66
2022/11/15 08:19:07;;;;;;;;;28.50;26.75;;;;;10.00;86.48;100636.44;5009997;28;10667;-64
2022/11/15 08:21:51;;;;;;;;;29.25;24.75;;;;;10.02;86.35;100645.16;4998213;28;10609;-65
2022/11/15 08:24:36;;;;;;;;;27.00;24.50;;;;;10.02;85.94;100639.78;5010004;28;10620;-66
2022/11/15 08:27:22;;;;;;;;;29.50;25.50;;;;;9.96;86.06;100625.25;5009894;28;10533;-65
2022/11/15 08:30:07;;;;;;;;;27.50;27.25;;;;;10.00;86.21;100628.38;5009034;28;10534;-66
2022/11/15 08:32:53;;;;;;;;;26.50;25.25;;;;;10.04;86.23;100622.41;5009984;28;10645;-66
2022/11/15 08:35:40;;;;;;;;;26.25;23.25;;;;;10.04;86.09;100624.25;5009951;28;10527;-66
2022/11/15 08:38:26;;;;;;;;;31.00;24.25;;;;;10.08;85.92;100612.09;5010047;28;10436;-66
2022/11/15 08:41:16;;;;;;;;;22.50;17.75;;;;;10.15;86.44;100616.50;5008480;28;10721;-66
2022/11/15 08:44:02;;;;;;;;;22.75;22.50;;;;;10.14;85.74;100614.00;5009730;28;10433;-66
2022/11/15 08:46:46;;;;;;;;;28.25;23.50;;;;;10.13;86.03;100613.19;5009546;28;10687;-66
2022/11/15 08:49:31;;;;;;;;;28.25;22.00;;;;;10.18;86.14;100609.06;5009495;28;10512;-65
2022/11/15 08:52:16;;;;;;;;;26.50;24.50;;;;;10.21;85.63;100616.72;5013049;28;10465;-66
2022/11/15 08:55:01;;;;;;;;;25.00;24.50;;;;;10.18;85.74;100609.88;5012848;28;10585;-66
2022/11/15 08:57:46;;;;;;;;;22.00;18.75;;;;;10.24;85.94;100606.41;5013406;28;10463;-66
2022/11/15 09:00:30;;;;;;;;;22.75;18.50;;;;;10.25;85.08;100600.03;5012975;28;10265;-65
2022/11/15 09:03:16;;;;;;;;;18.50;17.75;;;;;10.25;84.93;100599.19;5013344;28;10369;-66
2022/11/15 09:06:01;;;;;;;;;20.50;17.50;;;;;10.19;84.72;100608.03;5013087;28;10335;-66
2022/11/15 09:08:45;;;;;;;;;23.00;16.25;;;;;10.28;84.96;100606.88;5013016;28;10473;-66
2022/11/15 09:11:32;;;;;;;;;25.25;20.00;;;;;10.26;84.98;100607.06;5012158;28;11204;-64
2022/11/15 09:14:17;;;;;;;;;22.00;19.00;;;;;10.33;85.06;100599.88;5012754;28;10357;-66
2022/11/15 09:17:03;;;;;;;;;16.75;15.50;;;;;10.44;84.38;100603.84;4978774;28;10264;-65
2022/11/15 09:19:47;;;;;;;;;21.00;16.00;;;;;10.40;84.54;100603.41;4996860;28;10435;-66
2022/11/15 09:22:32;;;;;;;;;21.50;21.00;;;;;10.40;84.02;100605.28;5012714;28;10301;-64
2022/11/15 09:25:17;;;;;;;;;19.25;15.00;;;;;10.45;84.03;100596.59;5011971;28;10382;-65
2022/11/15 09:28:06;;;;;;;;;16.50;16.50;;;;;10.46;84.14;100603.66;5012598;28;10200;-66
2022/11/15 09:31:09;;;;;;;;;15.50;15.50;;;;;10.53;83.77;100596.44;5012371;28;10167;-66
2022/11/15 09:33:54;;;;;;;;;19.00;17.00;;;;;10.61;83.66;100596.28;5012302;28;10214;-64
2022/11/15 09:36:39;;;;;;;;;17.25;15.25;;;;;10.61;83.23;100591.75;5012507;28;10206;-66
2022/11/15 09:39:24;;;;;;;;;18.25;15.25;;;;;10.69;82.95;100587.19;5019045;28;10219;-66
2022/11/15 09:42:27;;;;;;;;;21.75;16.00;;;;;10.76;82.71;100588.88;5012332;28;10043;-65
2022/11/15 09:45:34;;;;;;;;;18.50;14.00;;;;;10.69;82.41;100593.41;5011719;28;10070;-66
2022/11/15 09:49:00;;;;;;;;;15.75;12.75;;;;;10.83;81.55;100597.81;4991383;28;10112;-66
2022/11/15 09:51:51;;;;;;;;;17.75;16.25;;;;;10.88;81.58;100591.81;5012255;28;9951;-66
2022/11/15 09:54:29;;;;;;;;;13.50;11.25;;;;;11.00;80.76;100594.75;5012528;28;10041;-66
2022/11/15 09:57:21;;;;;;;;;21.50;16.75;;;;;11.14;80.44;100597.28;4992507;28;10106;-66
2022/11/15 09:59:50;;;;;;;;;16.00;11.50;;;;;11.10;80.20;100596.03;5008153;28;10046;-66
2022/11/15 10:02:47;;;;;;;;;14.75;13.00;;;;;11.12;79.71;100587.75;5011298;28;10095;-66
2022/11/15 10:05:18;;;;;;;;;12.75;12.25;;;;;10.96;79.66;100593.50;5011379;28;9951;-67
2022/11/15 10:08:23;;;;;;;;;14.75;12.25;;;;;10.87;79.33;100584.78;4994307;28;9933;-66
2022/11/15 10:10:57;;;;;;;;;16.75;14.25;;;;;10.85;79.84;100582.28;5011409;28;10015;-67
2022/11/15 10:13:50;;;;;;;;;18.00;14.50;;;;;10.77;79.77;100584.31;5010819;28;10049;-66
2022/11/15 10:16:37;;;;;;;;;14.00;13.25;;;;;10.86;79.46;100583.13;5011618;28;10768;-65
2022/11/15 10:19:14;;;;;;;;;8.75;8.75;;;;;10.97;79.07;100585.22;5011798;28;10042;-66
2022/11/15 10:22:03;;;;;;;;;12.75;12.75;;;;;11.06;78.47;100572.38;5011061;28;9921;-66
2022/11/15 10:24:36;;;;;;;;;11.50;11.50;;;;;11.14;78.22;100564.97;4974652;28;10027;-66
2022/11/15 10:27:13;;;;;;;;;11.75;10.00;;;;;11.11;78.31;100561.84;5011565;28;10094;-66
2022/11/15 10:29:47;;;;;;;;;14.25;12.50;;;;;11.03;77.80;100545.88;5011189;28;9963;-65
2022/11/15 10:32:17;;;;;;;;;9.75;9.75;;;;;11.04;77.83;100542.16;5011548;28;10068;-66
2022/11/15 10:34:47;;;;;;;;;13.50;12.25;;;;;10.99;78.00;100544.63;5010934;28;10005;-65
2022/11/15 10:37:14;;;;;;;;;9.50;9.50;;;;;10.97;78.12;100527.81;5010913;28;10196;-67
2022/11/15 10:39:41;;;;;;;;;9.00;9.00;;;;;11.05;77.98;100527.63;5011039;28;10395;-66
2022/11/15 10:42:28;;;;;;;;;10.00;10.00;;;;;11.02;77.70;100512.72;5011415;28;9927;-65
2022/11/15 10:44:54;;;;;;;;;7.50;6.75;;;;;11.07;77.72;100518.31;5011065;28;9960;-66
2022/11/15 10:47:28;;;;;;;;;13.50;12.50;;;;;11.09;77.68;100516.25;5010973;28;9918;-65
2022/11/15 10:49:56;;;;;;;;;5.50;5.50;;;;;11.07;77.23;100514.81;5010854;28;10247;-66
2022/11/15 10:52:24;;;;;;;;;16.25;11.25;;;;;11.17;77.14;100509.81;5011268;28;9875;-66
2022/11/15 10:55:21;;;;;;;;;10.25;10.25;;;;;11.25;77.26;100515.00;5011055;28;10648;-66
2022/11/15 10:57:53;;;;;;;;;9.25;8.75;;;;;11.34;76.53;100499.47;5011483;28;9952;-65
2022/11/15 11:00:19;;;;;;;;;11.50;9.50;;;;;11.35;76.65;100511.94;5010528;28;9796;-66
2022/11/15 11:02:55;;;;;;;;;8.75;8.75;;;;;11.34;76.21;100503.00;4992934;28;10570;-65
2022/11/15 11:05:36;;;;;;;;;10.75;9.75;;;;;11.31;75.76;100500.72;5010753;28;9954;-65
2022/11/15 11:08:22;;;;;;;;;6.50;6.00;;;;;11.25;75.69;100493.47;5011002;28;9819;-65
2022/11/15 11:10:56;;;;;;;;;6.25;5.75;;;;;11.33;75.22;100487.84;5010499;28;10460;-65
2022/11/15 11:13:31;;;;;;;;;9.25;6.75;;;;;11.33;75.01;100485.16;5010011;28;9756;-66
2022/11/15 11:16:19;;;;;;;;;10.50;9.25;;;;;11.34;75.13;100486.84;5009104;28;9725;-66
2022/11/15 11:19:13;;;;;;;;;6.00;6.00;;;;;11.52;74.22;100491.59;5025692;28;9783;-67
2022/11/15 11:22:05;;;;;;;;;3.00;3.00;;;;;11.68;73.92;100489.50;5010308;28;9700;-66
2022/11/15 11:24:42;;;;;;;;;7.75;5.25;;;;;11.72;73.78;100479.94;5010278;28;9600;-66
2022/11/15 11:27:23;;;;;;;;;8.75;5.00;;;;;11.66;73.64;100481.59;5010861;28;9633;-65
2022/11/15 11:30:06;;;;;;;;;7.75;5.00;;;;;11.61;73.72;100484.94;5009846;28;9698;-62
2022/11/15 11:33:28;;;;;;;;;7.00;3.00;;;;;11.72;73.51;100488.88;5010163;28;9538;-65
2022/11/15 11:35:57;;;;;;;;;4.75;4.75;;;;;11.70;72.79;100482.03;4979620;28;9552;-66
2022/11/15 11:38:48;;;;;;;;;6.25;5.50;;;;;11.57;73.16;100486.41;5010364;28;9536;-66
2022/11/15 11:41:30;;;;;;;;;3.00;3.00;;;;;11.50;73.18;100468.56;5009744;28;9629;-65
2022/11/15 11:44:24;;;;;;;;;3.25;2.00;;;;;11.51;73.06;100464.84;5010395;28;9688;-65
2022/11/15 11:46:54;;;;;;;;;4.25;4.25;;;;;11.58;72.97;100462.97;5005413;28;9521;-66
2022/11/15 11:49:30;;;;;;;;;2.75;2.75;;;;;11.53;72.97;100462.75;5010219;28;9723;-66
2022/11/15 11:52:31;;;;;;;;;1.00;1.00;;;;;11.56;73.00;100449.69;5006703;28;9672;-66
2022/11/15 11:55:14;;;;;;;;;2.75;2.50;;;;;11.66;72.78;100443.03;5010368;28;9478;-64
2022/11/15 11:58:04;;;;;;;;;2.00;2.00;;;;;11.80;72.15;100439.28;5010088;28;9465;-62
2022/11/15 12:00:35;;;;;;;;;3.50;3.50;;;;;11.76;71.42;100425.38;5009929;28;9442;-62
2022/11/15 12:03:25;;;;;;;;;1.00;1.00;;;;;11.68;71.17;100416.72;5010245;28;9547;-62
2022/11/15 12:05:56;;;;;;;;;6.00;5.00;;;;;11.63;71.48;100420.88;4999569;28;9474;-63
2022/11/15 12:08:49;;;;;;;;;1.00;1.00;;;;;11.58;72.01;100409.88;5010173;28;9594;-64
2022/11/15 12:11:34;;;;;;;;;1.00;1.00;;;;;11.65;71.50;100409.84;5009692;28;9630;-64
2022/11/15 12:14:05;;;;;;;;;1.67;0.33;;;;;11.62;71.86;100403.00;5010413;28;9463;-62
2022/11/15 12:16:33;;;;;;;;;2.00;2.00;;;;;11.63;71.36;100398.47;5009757;28;9351;-64
2022/11/15 12:19:02;;;;;;;;;1.00;1.00;;;;;11.68;71.14;100400.53;5006471;28;9482;-64
2022/11/15 12:21:52;;;;;;;;;1.00;1.00;;;;;11.77;71.02;100402.75;5009448;28;9399;-61
2022/11/15 12:24:29;;;;;;;;;1.00;1.00;;;;;11.75;70.90;100396.78;5010154;28;9498;-63
2022/11/15 12:27:05;;;;;;;;;2.00;1.75;;;;;11.64;70.86;100375.84;4998387;28;9337;-61
2022/11/15 12:29:38;;;;;;;;;1.67;1.67;;;;;11.67;70.69;100369.19;5012220;28;9541;-63
2022/11/15 12:32:17;;;;;;;;;1.00;1.00;;;;;11.77;70.13;100374.97;5013220;28;10177;-62
2022/11/15 12:34:47;;;;;;;;;1.50;1.50;;;;;11.81;70.61;100371.63;5013014;28;9604;-61
2022/11/15 12:37:35;;;;;;;;;2.00;2.00;;;;;11.68;70.71;100371.69;5013844;28;9461;-66
2022/11/15 12:40:24;;;;;;;;;1.00;1.00;;;;;11.73;70.87;100376.44;5013445;28;9540;-64
2022/11/15 12:43:01;;;;;;;;;1.67;1.33;;;;;11.71;70.83;100355.09;5012967;28;9435;-64
2022/11/15 12:45:33;;;;;;;;;1.00;1.00;;;;;11.77;70.44;100362.31;5013243;28;9480;-62
2022/11/15 12:48:17;;;;;;;;;1.00;1.00;;;;;11.81;70.21;100354.63;5013360;28;9465;-64
2022/11/15 12:50:57;;;;;;;;;1.00;1.00;;;;;11.83;70.47;100341.81;5012975;28;9477;-62
2022/11/15 12:53:24;;;;;;;;;2.33;1.00;;;;;11.80;70.34;100340.31;5013231;28;9435;-63
2022/11/15 12:56:06;;;;;;;;;1.33;1.00;;;;;11.85;70.52;100335.13;5012902;28;9538;-63
2022/11/15 12:58:58;;;;;;;;;0.00;0.00;;;;;11.88;70.48;100334.72;5016797;28;9351;-63